Terminal Aerodrome Forecast
Issued by NWS

Home | Current Version | Previous Version | Text Only | Print | Product List | Glossary On
Versions: 1 2 3 4 5 6 7 8 9 10 11 12 13 14 15 16
000
FTUS43 KDLH 250200 AAB
TAFBRD
TAF AMD
KBRD 250246Z 2503/2524 07006KT 6SM -RA OVC050
      TEMPO 2503/2505 5SM -RA OVC025
     FM250500 06004KT 3SM -RA BR OVC008
     FM251200 05007KT 2SM -RA BR OVC006
     FM252200 34006KT 3SM -RA BR OVC012=

USA.gov is the U.S. government's official web portal to all federal, state and local government web resources and services.